sensor_id;sensor_type;location;lat;lon;timestamp;P1;durP1;ratioP1;P2;durP2;ratioP2
5195;SDS011;2617;51.006;12.436;2023-04-25T00:01:20;3.63;;;3.27;;
5195;SDS011;2617;51.006;12.436;2023-04-25T00:06:23;4.43;;;3.30;;
5195;SDS011;2617;51.006;12.436;2023-04-25T00:11:27;4.22;;;3.47;;
5195;SDS011;2617;51.006;12.436;2023-04-25T00:16:29;6.03;;;3.80;;
5195;SDS011;2617;51.006;12.436;2023-04-25T00:21:32;4.53;;;3.70;;
5195;SDS011;2617;51.006;12.436;2023-04-25T00:26:35;3.40;;;3.10;;
5195;SDS011;2617;51.006;12.436;2023-04-25T00:31:37;5.65;;;4.12;;
5195;SDS011;2617;51.006;12.436;2023-04-25T00:36:40;7.33;;;3.50;;
5195;SDS011;2617;51.006;12.436;2023-04-25T00:41:43;4.30;;;4.00;;
5195;SDS011;2617;51.006;12.436;2023-04-25T00:46:47;4.17;;;3.33;;
5195;SDS011;2617;51.006;12.436;2023-04-25T00:51:49;3.83;;;3.40;;
5195;SDS011;2617;51.006;12.436;2023-04-25T00:56:53;8.42;;;3.80;;
5195;SDS011;2617;51.006;12.436;2023-04-25T01:01:56;4.43;;;3.90;;
5195;SDS011;2617;51.006;12.436;2023-04-25T01:07:00;4.50;;;3.83;;
5195;SDS011;2617;51.006;12.436;2023-04-25T01:12:03;6.13;;;3.40;;
5195;SDS011;2617;51.006;12.436;2023-04-25T01:17:05;5.50;;;4.00;;
5195;SDS011;2617;51.006;12.436;2023-04-25T01:22:09;4.00;;;3.50;;
5195;SDS011;2617;51.006;12.436;2023-04-25T01:27:11;5.40;;;4.07;;
5195;SDS011;2617;51.006;12.436;2023-04-25T01:32:14;3.93;;;3.53;;
5195;SDS011;2617;51.006;12.436;2023-04-25T01:37:17;5.17;;;4.23;;
5195;SDS011;2617;51.006;12.436;2023-04-25T01:42:19;5.13;;;4.47;;
5195;SDS011;2617;51.006;12.436;2023-04-25T01:47:22;5.70;;;4.40;;
5195;SDS011;2617;51.006;12.436;2023-04-25T01:52:24;5.17;;;4.30;;
5195;SDS011;2617;51.006;12.436;2023-04-25T01:57:26;5.07;;;4.57;;
5195;SDS011;2617;51.006;12.436;2023-04-25T02:02:29;7.37;;;5.30;;
5195;SDS011;2617;51.006;12.436;2023-04-25T02:07:32;7.40;;;4.73;;
5195;SDS011;2617;51.006;12.436;2023-04-25T02:12:35;5.70;;;4.60;;
5195;SDS011;2617;51.006;12.436;2023-04-25T02:17:36;6.20;;;4.83;;
5195;SDS011;2617;51.006;12.436;2023-04-25T02:22:39;5.53;;;4.97;;
5195;SDS011;2617;51.006;12.436;2023-04-25T02:27:42;5.77;;;4.47;;
5195;SDS011;2617;51.006;12.436;2023-04-25T02:32:44;6.13;;;4.63;;
5195;SDS011;2617;51.006;12.436;2023-04-25T02:37:46;5.93;;;4.87;;
5195;SDS011;2617;51.006;12.436;2023-04-25T02:42:48;4.50;;;4.10;;
5195;SDS011;2617;51.006;12.436;2023-04-25T02:47:51;7.13;;;4.73;;
5195;SDS011;2617;51.006;12.436;2023-04-25T02:52:54;7.03;;;4.73;;
5195;SDS011;2617;51.006;12.436;2023-04-25T02:57:57;5.60;;;4.90;;
5195;SDS011;2617;51.006;12.436;2023-04-25T03:02:59;7.67;;;5.00;;
5195;SDS011;2617;51.006;12.436;2023-04-25T03:08:01;7.75;;;4.85;;
5195;SDS011;2617;51.006;12.436;2023-04-25T03:13:04;4.57;;;4.10;;
5195;SDS011;2617;51.006;12.436;2023-04-25T03:18:06;7.03;;;4.60;;
5195;SDS011;2617;51.006;12.436;2023-04-25T03:23:10;8.23;;;4.87;;
5195;SDS011;2617;51.006;12.436;2023-04-25T03:28:12;4.87;;;4.40;;
5195;SDS011;2617;51.006;12.436;2023-04-25T03:33:14;6.07;;;4.50;;
5195;SDS011;2617;51.006;12.436;2023-04-25T03:38:18;8.20;;;5.10;;
5195;SDS011;2617;51.006;12.436;2023-04-25T03:43:20;6.37;;;4.60;;
5195;SDS011;2617;51.006;12.436;2023-04-25T03:48:22;6.77;;;4.63;;
5195;SDS011;2617;51.006;12.436;2023-04-25T03:53:26;9.08;;;4.98;;
5195;SDS011;2617;51.006;12.436;2023-04-25T03:58:29;5.30;;;4.80;;
5195;SDS011;2617;51.006;12.436;2023-04-25T04:03:32;7.90;;;5.53;;
5195;SDS011;2617;51.006;12.436;2023-04-25T04:08:35;9.30;;;4.70;;
5195;SDS011;2617;51.006;12.436;2023-04-25T04:13:37;6.20;;;5.20;;
5195;SDS011;2617;51.006;12.436;2023-04-25T04:18:40;7.63;;;4.33;;
5195;SDS011;2617;51.006;12.436;2023-04-25T04:23:42;7.93;;;5.13;;
5195;SDS011;2617;51.006;12.436;2023-04-25T04:28:44;9.40;;;5.30;;
5195;SDS011;2617;51.006;12.436;2023-04-25T04:33:47;6.40;;;5.20;;
5195;SDS011;2617;51.006;12.436;2023-04-25T04:38:49;8.80;;;4.57;;
5195;SDS011;2617;51.006;12.436;2023-04-25T04:43:52;7.90;;;3.67;;
5195;SDS011;2617;51.006;12.436;2023-04-25T04:48:54;5.40;;;3.40;;
5195;SDS011;2617;51.006;12.436;2023-04-25T04:53:57;4.55;;;2.90;;
5195;SDS011;2617;51.006;12.436;2023-04-25T04:58:59;3.33;;;3.03;;
5195;SDS011;2617;51.006;12.436;2023-04-25T05:04:02;4.30;;;3.27;;
5195;SDS011;2617;51.006;12.436;2023-04-25T05:09:04;3.80;;;3.40;;
5195;SDS011;2617;51.006;12.436;2023-04-25T05:14:07;8.00;;;3.67;;
5195;SDS011;2617;51.006;12.436;2023-04-25T05:19:09;8.77;;;3.90;;
5195;SDS011;2617;51.006;12.436;2023-04-25T05:24:12;5.95;;;4.72;;
5195;SDS011;2617;51.006;12.436;2023-04-25T05:29:14;4.07;;;3.67;;
5195;SDS011;2617;51.006;12.436;2023-04-25T05:34:16;5.37;;;3.83;;
5195;SDS011;2617;51.006;12.436;2023-04-25T05:39:19;4.77;;;4.27;;
5195;SDS011;2617;51.006;12.436;2023-04-25T05:44:21;5.07;;;3.65;;
5195;SDS011;2617;51.006;12.436;2023-04-25T05:49:24;9.43;;;4.27;;
5195;SDS011;2617;51.006;12.436;2023-04-25T05:54:28;4.82;;;3.28;;
5195;SDS011;2617;51.006;12.436;2023-04-25T05:59:31;6.00;;;4.20;;
5195;SDS011;2617;51.006;12.436;2023-04-25T06:04:33;7.43;;;3.70;;
5195;SDS011;2617;51.006;12.436;2023-04-25T06:09:36;4.20;;;3.80;;
5195;SDS011;2617;51.006;12.436;2023-04-25T06:14:38;5.60;;;4.00;;
5195;SDS011;2617;51.006;12.436;2023-04-25T06:19:41;6.90;;;4.10;;
5195;SDS011;2617;51.006;12.436;2023-04-25T06:24:43;4.97;;;4.07;;
5195;SDS011;2617;51.006;12.436;2023-04-25T06:29:45;6.50;;;3.93;;
5195;SDS011;2617;51.006;12.436;2023-04-25T06:34:49;4.40;;;3.45;;
5195;SDS011;2617;51.006;12.436;2023-04-25T06:39:51;5.20;;;3.40;;
5195;SDS011;2617;51.006;12.436;2023-04-25T06:44:53;5.90;;;3.63;;
5195;SDS011;2617;51.006;12.436;2023-04-25T06:49:56;5.93;;;3.50;;
5195;SDS011;2617;51.006;12.436;2023-04-25T06:54:59;4.30;;;3.40;;
5195;SDS011;2617;51.006;12.436;2023-04-25T07:00:02;6.10;;;3.50;;
5195;SDS011;2617;51.006;12.436;2023-04-25T07:05:07;5.97;;;3.57;;
5195;SDS011;2617;51.006;12.436;2023-04-25T07:10:11;3.93;;;3.27;;
5195;SDS011;2617;51.006;12.436;2023-04-25T07:15:13;5.70;;;4.07;;
5195;SDS011;2617;51.006;12.436;2023-04-25T07:20:16;13.30;;;3.90;;
5195;SDS011;2617;51.006;12.436;2023-04-25T07:25:19;5.80;;;4.30;;
5195;SDS011;2617;51.006;12.436;2023-04-25T07:30:21;5.70;;;3.30;;
5195;SDS011;2617;51.006;12.436;2023-04-25T07:35:24;3.10;;;2.60;;
5195;SDS011;2617;51.006;12.436;2023-04-25T07:40:26;1.90;;;1.80;;
5195;SDS011;2617;51.006;12.436;2023-04-25T07:45:29;5.15;;;2.97;;
5195;SDS011;2617;51.006;12.436;2023-04-25T07:50:31;3.57;;;2.80;;
5195;SDS011;2617;51.006;12.436;2023-04-25T07:55:35;5.42;;;2.64;;
5195;SDS011;2617;51.006;12.436;2023-04-25T08:00:37;7.60;;;2.70;;
5195;SDS011;2617;51.006;12.436;2023-04-25T08:05:39;3.43;;;2.67;;
5195;SDS011;2617;51.006;12.436;2023-04-25T08:10:42;9.03;;;3.80;;
5195;SDS011;2617;51.006;12.436;2023-04-25T08:15:44;7.87;;;3.90;;
5195;SDS011;2617;51.006;12.436;2023-04-25T08:20:47;4.33;;;3.50;;
5195;SDS011;2617;51.006;12.436;2023-04-25T08:25:49;7.10;;;3.33;;
5195;SDS011;2617;51.006;12.436;2023-04-25T08:30:51;11.50;;;4.10;;
5195;SDS011;2617;51.006;12.436;2023-04-25T08:35:54;6.87;;;3.50;;
5195;SDS011;2617;51.006;12.436;2023-04-25T08:40:56;7.10;;;3.43;;
5195;SDS011;2617;51.006;12.436;2023-04-25T08:46:00;7.35;;;3.87;;
5195;SDS011;2617;51.006;12.436;2023-04-25T08:51:02;4.13;;;3.73;;
5195;SDS011;2617;51.006;12.436;2023-04-25T08:56:06;3.53;;;3.20;;
5195;SDS011;2617;51.006;12.436;2023-04-25T09:01:08;4.95;;;3.33;;
5195;SDS011;2617;51.006;12.436;2023-04-25T09:06:12;4.23;;;3.43;;
5195;SDS011;2617;51.006;12.436;2023-04-25T09:11:14;5.60;;;4.23;;
5195;SDS011;2617;51.006;12.436;2023-04-25T09:16:16;4.57;;;4.15;;
5195;SDS011;2617;51.006;12.436;2023-04-25T09:21:21;8.33;;;4.57;;
5195;SDS011;2617;51.006;12.436;2023-04-25T09:26:22;5.77;;;4.33;;
5195;SDS011;2617;51.006;12.436;2023-04-25T09:31:24;9.80;;;5.60;;
5195;SDS011;2617;51.006;12.436;2023-04-25T09:36:27;13.70;;;5.73;;
5195;SDS011;2617;51.006;12.436;2023-04-25T09:41:30;4.40;;;4.00;;
5195;SDS011;2617;51.006;12.436;2023-04-25T09:46:34;5.30;;;3.50;;
5195;SDS011;2617;51.006;12.436;2023-04-25T09:51:38;2.80;;;2.50;;
5195;SDS011;2617;51.006;12.436;2023-04-25T09:56:40;10.93;;;3.23;;
5195;SDS011;2617;51.006;12.436;2023-04-25T10:01:43;6.07;;;3.10;;
5195;SDS011;2617;51.006;12.436;2023-04-25T10:06:45;3.87;;;2.90;;
5195;SDS011;2617;51.006;12.436;2023-04-25T10:11:48;6.00;;;3.10;;
5195;SDS011;2617;51.006;12.436;2023-04-25T10:16:50;7.17;;;3.43;;
5195;SDS011;2617;51.006;12.436;2023-04-25T10:22:02;4.77;;;3.00;;
5195;SDS011;2617;51.006;12.436;2023-04-25T10:27:20;8.50;;;4.70;;
5195;SDS011;2617;51.006;12.436;2023-04-25T10:32:22;5.77;;;4.30;;
5195;SDS011;2617;51.006;12.436;2023-04-25T10:37:25;10.77;;;4.80;;
5195;SDS011;2617;51.006;12.436;2023-04-25T10:42:28;6.60;;;4.50;;
5195;SDS011;2617;51.006;12.436;2023-04-25T10:47:35;7.57;;;4.10;;
5195;SDS011;2617;51.006;12.436;2023-04-25T10:52:40;5.67;;;3.40;;
5195;SDS011;2617;51.006;12.436;2023-04-25T10:57:44;4.23;;;3.23;;
5195;SDS011;2617;51.006;12.436;2023-04-25T11:02:46;8.90;;;2.90;;
5195;SDS011;2617;51.006;12.436;2023-04-25T11:07:53;11.07;;;3.47;;
5195;SDS011;2617;51.006;12.436;2023-04-25T11:12:57;13.03;;;3.60;;
5195;SDS011;2617;51.006;12.436;2023-04-25T11:18:01;6.40;;;2.30;;
5195;SDS011;2617;51.006;12.436;2023-04-25T11:23:04;6.30;;;3.13;;
5195;SDS011;2617;51.006;12.436;2023-04-25T11:28:06;4.12;;;2.58;;
5195;SDS011;2617;51.006;12.436;2023-04-25T11:33:09;9.90;;;3.50;;
5195;SDS011;2617;51.006;12.436;2023-04-25T11:38:12;6.97;;;2.93;;
5195;SDS011;2617;51.006;12.436;2023-04-25T11:43:15;12.07;;;2.97;;
5195;SDS011;2617;51.006;12.436;2023-04-25T11:48:18;6.90;;;2.50;;
5195;SDS011;2617;51.006;12.436;2023-04-25T11:53:21;6.47;;;3.00;;
5195;SDS011;2617;51.006;12.436;2023-04-25T11:58:23;5.67;;;2.63;;
5195;SDS011;2617;51.006;12.436;2023-04-25T12:03:25;4.50;;;2.67;;
5195;SDS011;2617;51.006;12.436;2023-04-25T12:08:28;4.93;;;2.90;;
5195;SDS011;2617;51.006;12.436;2023-04-25T12:13:31;7.10;;;4.23;;
5195;SDS011;2617;51.006;12.436;2023-04-25T12:18:33;5.23;;;3.23;;
5195;SDS011;2617;51.006;12.436;2023-04-25T12:23:38;8.73;;;3.40;;
5195;SDS011;2617;51.006;12.436;2023-04-25T12:28:38;6.60;;;3.57;;
5195;SDS011;2617;51.006;12.436;2023-04-25T12:33:40;5.60;;;3.53;;
5195;SDS011;2617;51.006;12.436;2023-04-25T12:38:43;4.83;;;3.30;;
5195;SDS011;2617;51.006;12.436;2023-04-25T12:43:45;7.23;;;3.30;;
5195;SDS011;2617;51.006;12.436;2023-04-25T12:48:48;6.53;;;3.10;;
5195;SDS011;2617;51.006;12.436;2023-04-25T12:53:50;6.60;;;4.07;;
5195;SDS011;2617;51.006;12.436;2023-04-25T12:58:53;5.23;;;2.83;;
5195;SDS011;2617;51.006;12.436;2023-04-25T13:03:55;3.47;;;2.70;;
5195;SDS011;2617;51.006;12.436;2023-04-25T13:08:58;3.07;;;2.30;;
5195;SDS011;2617;51.006;12.436;2023-04-25T13:14:01;8.77;;;3.10;;
5195;SDS011;2617;51.006;12.436;2023-04-25T13:19:04;10.80;;;3.00;;
5195;SDS011;2617;51.006;12.436;2023-04-25T13:24:06;2.93;;;2.40;;
5195;SDS011;2617;51.006;12.436;2023-04-25T13:29:09;7.68;;;2.50;;
5195;SDS011;2617;51.006;12.436;2023-04-25T13:34:11;7.97;;;3.93;;
5195;SDS011;2617;51.006;12.436;2023-04-25T13:39:13;5.57;;;2.00;;
5195;SDS011;2617;51.006;12.436;2023-04-25T13:44:16;1.73;;;1.60;;
5195;SDS011;2617;51.006;12.436;2023-04-25T13:49:18;6.00;;;2.40;;
5195;SDS011;2617;51.006;12.436;2023-04-25T13:54:21;6.43;;;2.30;;
5195;SDS011;2617;51.006;12.436;2023-04-25T13:59:23;11.60;;;3.10;;
5195;SDS011;2617;51.006;12.436;2023-04-25T14:04:27;6.23;;;2.60;;
5195;SDS011;2617;51.006;12.436;2023-04-25T14:09:29;7.80;;;2.17;;
5195;SDS011;2617;51.006;12.436;2023-04-25T14:14:32;12.13;;;3.17;;
5195;SDS011;2617;51.006;12.436;2023-04-25T14:19:34;8.07;;;2.00;;
5195;SDS011;2617;51.006;12.436;2023-04-25T14:24:38;5.47;;;2.00;;
5195;SDS011;2617;51.006;12.436;2023-04-25T14:29:40;4.50;;;2.10;;
5195;SDS011;2617;51.006;12.436;2023-04-25T14:34:43;6.15;;;2.10;;
5195;SDS011;2617;51.006;12.436;2023-04-25T14:39:45;7.77;;;1.97;;
5195;SDS011;2617;51.006;12.436;2023-04-25T14:44:47;5.77;;;2.13;;
5195;SDS011;2617;51.006;12.436;2023-04-25T14:49:50;6.27;;;2.00;;
5195;SDS011;2617;51.006;12.436;2023-04-25T14:54:52;7.27;;;1.47;;
5195;SDS011;2617;51.006;12.436;2023-04-25T14:59:55;4.55;;;1.58;;
5195;SDS011;2617;51.006;12.436;2023-04-25T15:04:57;4.00;;;1.40;;
5195;SDS011;2617;51.006;12.436;2023-04-25T15:10:00;10.10;;;2.13;;
5195;SDS011;2617;51.006;12.436;2023-04-25T15:15:03;6.93;;;1.70;;
5195;SDS011;2617;51.006;12.436;2023-04-25T15:20:06;3.70;;;1.40;;
5195;SDS011;2617;51.006;12.436;2023-04-25T15:25:11;1.80;;;1.40;;
5195;SDS011;2617;51.006;12.436;2023-04-25T15:30:14;5.10;;;1.73;;
5195;SDS011;2617;51.006;12.436;2023-04-25T15:35:16;3.42;;;1.80;;
5195;SDS011;2617;51.006;12.436;2023-04-25T15:40:19;3.13;;;1.60;;
5195;SDS011;2617;51.006;12.436;2023-04-25T15:45:22;7.87;;;2.00;;
5195;SDS011;2617;51.006;12.436;2023-04-25T15:50:25;3.70;;;1.20;;
5195;SDS011;2617;51.006;12.436;2023-04-25T15:55:27;4.68;;;1.70;;
5195;SDS011;2617;51.006;12.436;2023-04-25T16:00:31;2.27;;;0.90;;
5195;SDS011;2617;51.006;12.436;2023-04-25T16:05:33;1.70;;;1.40;;
5195;SDS011;2617;51.006;12.436;2023-04-25T16:10:37;1.73;;;1.60;;
5195;SDS011;2617;51.006;12.436;2023-04-25T16:15:39;2.90;;;1.60;;
5195;SDS011;2617;51.006;12.436;2023-04-25T16:20:41;4.73;;;1.30;;
5195;SDS011;2617;51.006;12.436;2023-04-25T16:25:45;3.97;;;1.37;;
5195;SDS011;2617;51.006;12.436;2023-04-25T16:30:47;5.07;;;1.70;;
5195;SDS011;2617;51.006;12.436;2023-04-25T16:35:50;3.17;;;1.77;;
5195;SDS011;2617;51.006;12.436;2023-04-25T16:40:53;3.33;;;1.27;;
5195;SDS011;2617;51.006;12.436;2023-04-25T16:45:55;3.63;;;1.47;;
5195;SDS011;2617;51.006;12.436;2023-04-25T16:50:57;5.30;;;1.30;;
5195;SDS011;2617;51.006;12.436;2023-04-25T16:56:00;6.23;;;1.60;;
5195;SDS011;2617;51.006;12.436;2023-04-25T17:01:02;3.17;;;1.77;;
5195;SDS011;2617;51.006;12.436;2023-04-25T17:06:05;4.90;;;1.73;;
5195;SDS011;2617;51.006;12.436;2023-04-25T17:11:08;6.80;;;2.30;;
5195;SDS011;2617;51.006;12.436;2023-04-25T17:16:10;5.60;;;1.60;;
5195;SDS011;2617;51.006;12.436;2023-04-25T17:21:13;8.23;;;1.80;;
5195;SDS011;2617;51.006;12.436;2023-04-25T17:26:16;2.17;;;1.60;;
5195;SDS011;2617;51.006;12.436;2023-04-25T17:31:19;4.87;;;1.73;;
5195;SDS011;2617;51.006;12.436;2023-04-25T17:36:22;3.53;;;1.53;;
5195;SDS011;2617;51.006;12.436;2023-04-25T17:41:25;6.23;;;1.60;;
5195;SDS011;2617;51.006;12.436;2023-04-25T17:46:28;9.53;;;1.60;;
5195;SDS011;2617;51.006;12.436;2023-04-25T17:51:30;7.20;;;1.47;;
5195;SDS011;2617;51.006;12.436;2023-04-25T17:56:35;8.70;;;1.60;;
5195;SDS011;2617;51.006;12.436;2023-04-25T18:01:38;6.70;;;2.06;;
5195;SDS011;2617;51.006;12.436;2023-04-25T18:06:41;4.70;;;1.90;;
5195;SDS011;2617;51.006;12.436;2023-04-25T18:11:44;9.83;;;2.50;;
5195;SDS011;2617;51.006;12.436;2023-04-25T18:16:47;5.53;;;2.00;;
5195;SDS011;2617;51.006;12.436;2023-04-25T18:21:49;2.47;;;1.87;;
5195;SDS011;2617;51.006;12.436;2023-04-25T18:26:52;7.13;;;3.40;;
5195;SDS011;2617;51.006;12.436;2023-04-25T18:31:54;5.83;;;2.30;;
5195;SDS011;2617;51.006;12.436;2023-04-25T18:36:57;7.23;;;1.77;;
5195;SDS011;2617;51.006;12.436;2023-04-25T18:41:59;4.17;;;1.87;;
5195;SDS011;2617;51.006;12.436;2023-04-25T18:47:02;5.13;;;2.13;;
5195;SDS011;2617;51.006;12.436;2023-04-25T18:52:04;10.67;;;8.50;;
5195;SDS011;2617;51.006;12.436;2023-04-25T18:57:09;4.90;;;2.50;;
5195;SDS011;2617;51.006;12.436;2023-04-25T19:02:12;7.67;;;1.60;;
5195;SDS011;2617;51.006;12.436;2023-04-25T19:07:14;6.30;;;1.20;;
5195;SDS011;2617;51.006;12.436;2023-04-25T19:12:16;12.10;;;10.27;;
5195;SDS011;2617;51.006;12.436;2023-04-25T19:17:19;3.53;;;3.07;;
5195;SDS011;2617;51.006;12.436;2023-04-25T19:22:22;5.90;;;2.10;;
5195;SDS011;2617;51.006;12.436;2023-04-25T19:27:24;7.90;;;2.13;;
5195;SDS011;2617;51.006;12.436;2023-04-25T19:32:28;3.30;;;1.90;;
5195;SDS011;2617;51.006;12.436;2023-04-25T19:37:30;3.40;;;1.50;;
5195;SDS011;2617;51.006;12.436;2023-04-25T19:42:33;3.42;;;1.90;;
5195;SDS011;2617;51.006;12.436;2023-04-25T19:47:36;4.20;;;1.63;;
5195;SDS011;2617;51.006;12.436;2023-04-25T19:52:39;4.62;;;3.15;;
5195;SDS011;2617;51.006;12.436;2023-04-25T19:57:41;4.80;;;2.80;;
5195;SDS011;2617;51.006;12.436;2023-04-25T20:02:45;5.72;;;2.22;;
5195;SDS011;2617;51.006;12.436;2023-04-25T20:07:47;3.75;;;1.52;;
5195;SDS011;2617;51.006;12.436;2023-04-25T20:12:49;2.70;;;1.93;;
5195;SDS011;2617;51.006;12.436;2023-04-25T20:17:53;7.00;;;1.70;;
5195;SDS011;2617;51.006;12.436;2023-04-25T20:22:55;7.30;;;2.50;;
5195;SDS011;2617;51.006;12.436;2023-04-25T20:27:58;6.30;;;2.73;;
5195;SDS011;2617;51.006;12.436;2023-04-25T20:33:00;8.97;;;2.60;;
5195;SDS011;2617;51.006;12.436;2023-04-25T20:38:02;6.13;;;2.60;;
5195;SDS011;2617;51.006;12.436;2023-04-25T20:43:05;6.77;;;1.77;;
5195;SDS011;2617;51.006;12.436;2023-04-25T20:48:07;1.73;;;1.30;;
5195;SDS011;2617;51.006;12.436;2023-04-25T20:53:10;1.57;;;1.47;;
5195;SDS011;2617;51.006;12.436;2023-04-25T20:58:12;4.13;;;1.67;;
5195;SDS011;2617;51.006;12.436;2023-04-25T21:03:15;1.40;;;1.30;;
5195;SDS011;2617;51.006;12.436;2023-04-25T21:08:17;3.40;;;1.50;;
5195;SDS011;2617;51.006;12.436;2023-04-25T21:13:20;4.37;;;2.60;;
5195;SDS011;2617;51.006;12.436;2023-04-25T21:18:22;2.73;;;1.70;;
5195;SDS011;2617;51.006;12.436;2023-04-25T21:23:24;2.00;;;1.87;;
5195;SDS011;2617;51.006;12.436;2023-04-25T21:28:27;3.10;;;1.70;;
5195;SDS011;2617;51.006;12.436;2023-04-25T21:33:29;5.50;;;1.93;;
5195;SDS011;2617;51.006;12.436;2023-04-25T21:38:32;1.93;;;1.73;;
5195;SDS011;2617;51.006;12.436;2023-04-25T21:43:35;3.60;;;1.70;;
5195;SDS011;2617;51.006;12.436;2023-04-25T21:48:37;4.53;;;1.55;;
5195;SDS011;2617;51.006;12.436;2023-04-25T21:53:41;4.80;;;1.58;;
5195;SDS011;2617;51.006;12.436;2023-04-25T21:58:44;3.67;;;1.83;;
5195;SDS011;2617;51.006;12.436;2023-04-25T22:03:46;1.58;;;1.48;;
5195;SDS011;2617;51.006;12.436;2023-04-25T22:08:48;2.45;;;2.03;;
5195;SDS011;2617;51.006;12.436;2023-04-25T22:13:50;4.17;;;1.80;;
5195;SDS011;2617;51.006;12.436;2023-04-25T22:18:53;2.80;;;1.50;;
5195;SDS011;2617;51.006;12.436;2023-04-25T22:23:55;1.67;;;1.57;;
5195;SDS011;2617;51.006;12.436;2023-04-25T22:28:59;2.83;;;1.60;;
5195;SDS011;2617;51.006;12.436;2023-04-25T22:34:01;5.62;;;1.25;;
5195;SDS011;2617;51.006;12.436;2023-04-25T22:39:04;1.50;;;1.43;;
5195;SDS011;2617;51.006;12.436;2023-04-25T22:44:07;5.50;;;1.73;;
5195;SDS011;2617;51.006;12.436;2023-04-25T22:49:10;3.00;;;2.10;;
5195;SDS011;2617;51.006;12.436;2023-04-25T22:54:12;10.30;;;1.87;;
5195;SDS011;2617;51.006;12.436;2023-04-25T22:59:15;5.73;;;2.30;;
5195;SDS011;2617;51.006;12.436;2023-04-25T23:04:18;3.57;;;1.73;;
5195;SDS011;2617;51.006;12.436;2023-04-25T23:09:20;2.23;;;1.50;;
5195;SDS011;2617;51.006;12.436;2023-04-25T23:14:23;3.33;;;1.70;;
5195;SDS011;2617;51.006;12.436;2023-04-25T23:19:25;2.63;;;1.93;;
5195;SDS011;2617;51.006;12.436;2023-04-25T23:24:28;3.17;;;1.83;;
5195;SDS011;2617;51.006;12.436;2023-04-25T23:29:30;2.27;;;1.53;;
5195;SDS011;2617;51.006;12.436;2023-04-25T23:34:33;1.50;;;1.40;;
5195;SDS011;2617;51.006;12.436;2023-04-25T23:39:36;2.50;;;1.53;;
5195;SDS011;2617;51.006;12.436;2023-04-25T23:44:38;2.53;;;1.50;;
5195;SDS011;2617;51.006;12.436;2023-04-25T23:49:42;3.68;;;1.50;;
5195;SDS011;2617;51.006;12.436;2023-04-25T23:54:45;1.77;;;1.50;;
5195;SDS011;2617;51.006;12.436;2023-04-25T23:59:47;2.67;;;1.37;;
